Flight Track Log - Related Links

Times and Time Zones

All times are in EDT time to prevent confusion due to time zone crossing. See the UAL4274 flight status page for this flight to view local times or setup timezone preferences in your user account.

Time Position Orientation Groundspeed Altitude Reporting Facility
EDT Latitude Longitude Course Direction KTS MPH feet Rate Location/Type
Fri 06:39:04 AM 37.4667 -77.3500 307° West 176 203 2,500  Level Potomac TRACON
Fri 06:39:52 AM 37.4833 -77.4167 288° West 238 274 5,200 2,952 Climbing Potomac TRACON
Fri 06:40:07 AM 37.4878 -77.4161 North 248 285 5,600 2,320 Climbing Washington Center
Fri 06:41:07 AM 37.5389 -77.4828 314° West 264 304 8,100 2,600 Climbing Washington Center
Fri 06:42:07 AM 37.5900 -77.5547 312° West 269 310 10,800 2,600 Climbing Washington Center
Fri 06:43:07 AM 37.6428 -77.6297 312° West 280 322 13,300 2,200 Climbing Washington Center
Fri 06:44:00 AM 37.7693 -77.7488 307° West  Level FlightAware Approximate
Fri 06:44:07 AM 37.7000 -77.7047 314° West 291 335 15,200  Level Washington Center
Fri 06:45:07 AM 37.7547 -77.7928 308° West 306 352 16,800 1,800 Climbing Washington Center
Fri 06:46:07 AM 37.8219 -77.8736 316° Northwest 318 366 18,800 1,600 Climbing Washington Center
Fri 06:47:07 AM 37.8850 -77.9678 310° West 331 381 20,000 1,350 Climbing Washington Center
Fri 06:48:07 AM 37.9494 -78.0697 309° West 355 409 21,500 1,350 Climbing Washington Center
Fri 06:49:07 AM 38.0478 -78.1600 324° Northwest 389 448 22,700 1,300 Climbing Washington Center
Fri 06:50:07 AM 38.1686 -78.1669 357° North 390 449 24,100 1,300 Climbing Washington Center
Fri 06:51:07 AM 38.2853 -78.1761 356° North 400 460 25,300 1,100 Climbing Washington Center
Fri 06:52:07 AM 38.4061 -78.1803 358° North 413 475 26,300 850 Climbing Washington Center
Fri 06:53:07 AM 38.5247 -78.1872 357° North 420 483 27,000 350 Climbing Washington Center
Fri 06:54:07 AM 38.6539 -78.1969 357° North 437 503 27,000  Level Washington Center
Fri 06:55:07 AM 38.7850 -78.2042 358° North 454 522 27,000  Level Washington Center
Fri 06:56:07 AM 38.9181 -78.2142 357° North 467 537 27,000  Level Washington Center
Fri 06:57:07 AM 39.0533 -78.2272 356° North 478 550 27,000  Level Washington Center
Fri 06:58:07 AM 39.1867 -78.2400 356° North 478 550 27,000  Level Washington Center
Fri 06:59:07 AM 39.3239 -78.2531 356° North 478 550 27,000  Level Washington Center
Fri 07:00:07 AM 39.4569 -78.2633 358° North 478 550 27,000  Level Washington Center
Fri 07:01:00 AM 39.5220 -78.2642 358° North  Level FlightAware Approximate
Fri 07:01:45 AM 39.6675 -78.3258 347° North 491 565 27,000  Level Cleveland Center
Fri 07:02:45 AM 39.7664 -78.3711 341° North 478 550 27,000  Level Cleveland Center
Fri 07:03:45 AM 39.8844 -78.4483 333° Northwest 463 533 27,000  Level Cleveland Center
Fri 07:04:45 AM 39.9639 -78.5733 310° West 435 501 27,000  Level Cleveland Center
Fri 07:05:44 AM 40.0392 -78.6958 309° West 429 494 27,000  Level Cleveland Center
Fri 07:06:45 AM 40.1139 -78.8158 309° West 434 499 27,000  Level Cleveland Center
Fri 07:07:45 AM 40.1886 -78.9361 309° West 434 499 27,000  Level Cleveland Center
Fri 07:08:45 AM 40.2656 -79.0594 309° West 439 505 27,000  Level Cleveland Center
Fri 07:09:44 AM 40.3381 -79.1831 308° West 434 499 27,000  Level Cleveland Center
Fri 07:10:45 AM 40.4144 -79.3069 309° West 434 499 27,000  Level Cleveland Center
Fri 07:11:44 AM 40.4950 -79.4308 311° West 439 505 27,000  Level Cleveland Center
Fri 07:12:45 AM 40.5714 -79.5608 308° West 445 512 27,000  Level Cleveland Center
Fri 07:13:44 AM 40.6494 -79.6856 310° West 445 512 27,000  Level Cleveland Center
Fri 07:14:45 AM 40.7339 -79.8294 308° West 445 512 27,000  Level Cleveland Center
Fri 07:15:45 AM 40.8097 -79.9578 308° West 445 512 27,000  Level Cleveland Center
Fri 07:16:45 AM 40.8894 -80.0886 309° West 450 518 27,000 -50 Level Cleveland Center
Fri 07:17:44 AM 40.9692 -80.2200 309° West 455 524 26,900 -1,109 Descending Cleveland Center
Fri 07:18:44 AM 41.0447 -80.3519 307° West 455 524 24,800 -1,450 Descending Cleveland Center
Fri 07:19:44 AM 41.1136 -80.4675 308° West 438 504 24,000 -450 Descending Cleveland Center
Fri 07:20:44 AM 41.1719 -80.5719 307° West 407 468 23,900  Descending Cleveland Center
Fri 07:21:44 AM 41.2469 -80.6964 309° West 402 463 24,000 -2,750 Climbing Cleveland Center
Fri 07:22:44 AM 41.3114 -80.8097 307° West 392 451 18,400 -4,413 Descending Cleveland Center
Fri 07:23:45 AM 41.3736 -80.9178 308° West 384 442 15,100 -3,150 Descending Cleveland Center
Fri 07:24:44 AM 41.4339 -81.0236 307° West 375 432 12,100 -2,471 Descending Cleveland Center
Fri 07:25:44 AM 41.4981 -81.1208 311° West 365 420 10,200 -1,050 Descending Cleveland Center
Fri 07:26:44 AM 41.5603 -81.2019 316° Northwest 328 377 10,000 -103 Descending Cleveland Center
Fri 07:27:41 AM 41.5994 -81.2744 306° West 237 273 10,000 -650 Level Cleveland Center
Fri 07:28:44 AM 41.6133 -81.3553 283° West 225 259 8,700 -1,016 Descending Cleveland Center
Fri 07:29:45 AM 41.6044 -81.4328 261° West 212 244 7,900 -893 Descending Cleveland Center
Fri 07:30:45 AM 41.5978 -81.4967 262° West 195 224 6,900 -1,160 Descending Cleveland Center
Fri 07:31:44 AM 41.5994 -81.5606 272° West 176 203 5,600 -900 Descending Cleveland Center
Fri 07:32:45 AM 41.5678 -81.6044 226° Southwest 160 184 5,100 -425 Descending Cleveland Center
Fri 07:33:51 AM 41.5422 -81.6456 230° Southwest 121 139 4,700 -545 Descending Cleveland Center
Fri 07:34:46 AM 41.5231 -81.6814 234° Southwest 141 162 4,000 -724 Descending Cleveland Center
Fri 07:35:47 AM 41.4978 -81.7197 229° Southwest 129 148 3,300 -689 Descending Cleveland Center

Login

Don't have an account? Register now (free) for customized features, flight alerts, and more!